sensor_id;sensor_type;location;lat;lon;timestamp;temperature;humidity
37204;DHT22;23098;48.054;10.636;2023-05-10T00:00:07;12.30;99.90
37204;DHT22;23098;48.054;10.636;2023-05-10T00:02:34;12.30;99.90
37204;DHT22;23098;48.054;10.636;2023-05-10T00:05:00;12.30;99.90
37204;DHT22;23098;48.054;10.636;2023-05-10T00:07:25;12.30;99.90
37204;DHT22;23098;48.054;10.636;2023-05-10T00:09:51;12.20;99.90
37204;DHT22;23098;48.054;10.636;2023-05-10T00:12:16;12.30;99.90
37204;DHT22;23098;48.054;10.636;2023-05-10T00:14:42;12.30;99.90
37204;DHT22;23098;48.054;10.636;2023-05-10T00:17:08;12.20;99.90
37204;DHT22;23098;48.054;10.636;2023-05-10T00:19:33;12.20;99.90
37204;DHT22;23098;48.054;10.636;2023-05-10T00:21:59;12.20;99.90
37204;DHT22;23098;48.054;10.636;2023-05-10T00:24:24;12.10;99.90
37204;DHT22;23098;48.054;10.636;2023-05-10T00:26:50;12.10;99.90
37204;DHT22;23098;48.054;10.636;2023-05-10T00:29:15;12.10;99.90
37204;DHT22;23098;48.054;10.636;2023-05-10T00:31:41;12.10;99.90
37204;DHT22;23098;48.054;10.636;2023-05-10T00:34:07;12.10;99.90
37204;DHT22;23098;48.054;10.636;2023-05-10T00:36:32;12.10;99.90
37204;DHT22;23098;48.054;10.636;2023-05-10T00:38:58;12.20;99.90
37204;DHT22;23098;48.054;10.636;2023-05-10T00:41:23;12.20;99.90
37204;DHT22;23098;48.054;10.636;2023-05-10T00:43:49;12.10;99.90
37204;DHT22;23098;48.054;10.636;2023-05-10T00:46:15;12.10;99.90
37204;DHT22;23098;48.054;10.636;2023-05-10T00:48:41;12.10;99.90
37204;DHT22;23098;48.054;10.636;2023-05-10T00:51:07;12.10;99.90
37204;DHT22;23098;48.054;10.636;2023-05-10T00:53:34;12.10;99.90
37204;DHT22;23098;48.054;10.636;2023-05-10T00:56:00;12.10;99.90
37204;DHT22;23098;48.054;10.636;2023-05-10T00:58:27;12.10;99.90
37204;DHT22;23098;48.054;10.636;2023-05-10T01:00:56;12.10;99.90
37204;DHT22;23098;48.054;10.636;2023-05-10T01:03:23;12.20;99.90
37204;DHT22;23098;48.054;10.636;2023-05-10T01:05:49;12.20;99.90
37204;DHT22;23098;48.054;10.636;2023-05-10T01:08:15;12.20;99.90
37204;DHT22;23098;48.054;10.636;2023-05-10T01:10:41;12.20;99.90
37204;DHT22;23098;48.054;10.636;2023-05-10T01:13:08;12.20;99.90
37204;DHT22;23098;48.054;10.636;2023-05-10T01:15:34;12.20;99.90
37204;DHT22;23098;48.054;10.636;2023-05-10T01:18:01;12.20;99.90
37204;DHT22;23098;48.054;10.636;2023-05-10T01:20:32;12.20;99.90
37204;DHT22;23098;48.054;10.636;2023-05-10T01:23:10;12.10;99.90
37204;DHT22;23098;48.054;10.636;2023-05-10T01:26:14;12.10;99.90
37204;DHT22;23098;48.054;10.636;2023-05-10T01:29:06;12.20;99.90
37204;DHT22;23098;48.054;10.636;2023-05-10T01:34:25;12.10;99.90
37204;DHT22;23098;48.054;10.636;2023-05-10T01:37:06;12.10;99.90
37204;DHT22;23098;48.054;10.636;2023-05-10T01:42:11;12.10;99.90
37204;DHT22;23098;48.054;10.636;2023-05-10T01:47:37;12.10;99.90
37204;DHT22;23098;48.054;10.636;2023-05-10T01:50:08;12.10;99.90
37204;DHT22;23098;48.054;10.636;2023-05-10T01:52:41;12.10;99.90
37204;DHT22;23098;48.054;10.636;2023-05-10T01:55:14;12.10;99.90
37204;DHT22;23098;48.054;10.636;2023-05-10T01:57:43;12.10;99.90
37204;DHT22;23098;48.054;10.636;2023-05-10T02:00:10;12.10;99.90
37204;DHT22;23098;48.054;10.636;2023-05-10T02:02:42;12.10;99.90
37204;DHT22;23098;48.054;10.636;2023-05-10T02:05:12;12.10;99.90
37204;DHT22;23098;48.054;10.636;2023-05-10T02:07:39;12.10;99.90
37204;DHT22;23098;48.054;10.636;2023-05-10T02:10:07;12.10;99.90
37204;DHT22;23098;48.054;10.636;2023-05-10T02:12:39;12.20;99.90
37204;DHT22;23098;48.054;10.636;2023-05-10T02:15:07;12.20;99.90
37204;DHT22;23098;48.054;10.636;2023-05-10T02:17:34;12.10;99.90
37204;DHT22;23098;48.054;10.636;2023-05-10T02:20:02;12.10;99.90
37204;DHT22;23098;48.054;10.636;2023-05-10T02:22:29;12.10;99.90
37204;DHT22;23098;48.054;10.636;2023-05-10T02:24:57;12.20;99.90
37204;DHT22;23098;48.054;10.636;2023-05-10T02:27:24;12.20;99.90
37204;DHT22;23098;48.054;10.636;2023-05-10T02:29:51;12.20;99.90
37204;DHT22;23098;48.054;10.636;2023-05-10T02:32:17;12.20;99.90
37204;DHT22;23098;48.054;10.636;2023-05-10T02:34:44;12.20;99.90
37204;DHT22;23098;48.054;10.636;2023-05-10T02:37:13;12.20;99.90
37204;DHT22;23098;48.054;10.636;2023-05-10T02:39:40;12.20;99.90
37204;DHT22;23098;48.054;10.636;2023-05-10T02:42:11;12.10;99.90
37204;DHT22;23098;48.054;10.636;2023-05-10T02:44:41;12.10;99.90
37204;DHT22;23098;48.054;10.636;2023-05-10T02:47:07;12.10;99.90
37204;DHT22;23098;48.054;10.636;2023-05-10T02:49:33;12.10;99.90
37204;DHT22;23098;48.054;10.636;2023-05-10T02:52:01;12.10;99.90
37204;DHT22;23098;48.054;10.636;2023-05-10T02:54:33;12.10;99.90
37204;DHT22;23098;48.054;10.636;2023-05-10T02:57:01;12.10;99.90
37204;DHT22;23098;48.054;10.636;2023-05-10T02:59:28;12.10;99.90
37204;DHT22;23098;48.054;10.636;2023-05-10T03:01:54;12.10;99.90
37204;DHT22;23098;48.054;10.636;2023-05-10T03:04:19;12.00;99.90
37204;DHT22;23098;48.054;10.636;2023-05-10T03:06:45;12.00;99.90
37204;DHT22;23098;48.054;10.636;2023-05-10T03:09:12;12.00;99.90
37204;DHT22;23098;48.054;10.636;2023-05-10T03:11:54;12.00;99.90
37204;DHT22;23098;48.054;10.636;2023-05-10T03:17:30;11.90;99.90
37204;DHT22;23098;48.054;10.636;2023-05-10T03:19:56;11.90;99.90
37204;DHT22;23098;48.054;10.636;2023-05-10T03:22:42;11.90;99.90
37204;DHT22;23098;48.054;10.636;2023-05-10T03:25:10;11.90;99.90
37204;DHT22;23098;48.054;10.636;2023-05-10T03:27:39;11.90;99.90
37204;DHT22;23098;48.054;10.636;2023-05-10T03:30:06;11.90;99.90
37204;DHT22;23098;48.054;10.636;2023-05-10T03:32:33;11.90;99.90
37204;DHT22;23098;48.054;10.636;2023-05-10T03:35:00;11.80;99.90
37204;DHT22;23098;48.054;10.636;2023-05-10T03:37:25;11.80;99.90
37204;DHT22;23098;48.054;10.636;2023-05-10T03:39:51;11.80;99.90
37204;DHT22;23098;48.054;10.636;2023-05-10T03:42:16;11.80;99.90
37204;DHT22;23098;48.054;10.636;2023-05-10T03:44:43;11.80;99.90
37204;DHT22;23098;48.054;10.636;2023-05-10T03:47:08;11.80;99.90
37204;DHT22;23098;48.054;10.636;2023-05-10T03:49:34;11.70;99.90
37204;DHT22;23098;48.054;10.636;2023-05-10T03:51:59;11.70;99.90
37204;DHT22;23098;48.054;10.636;2023-05-10T03:54:25;11.70;99.90
37204;DHT22;23098;48.054;10.636;2023-05-10T03:56:51;11.70;99.90
37204;DHT22;23098;48.054;10.636;2023-05-10T03:59:16;11.70;99.90
37204;DHT22;23098;48.054;10.636;2023-05-10T04:01:42;11.70;99.90
37204;DHT22;23098;48.054;10.636;2023-05-10T04:04:08;11.70;99.90
37204;DHT22;23098;48.054;10.636;2023-05-10T04:06:33;11.70;99.90
37204;DHT22;23098;48.054;10.636;2023-05-10T04:08:59;11.60;99.90
37204;DHT22;23098;48.054;10.636;2023-05-10T04:11:26;11.60;99.90
37204;DHT22;23098;48.054;10.636;2023-05-10T04:13:53;11.50;99.90
37204;DHT22;23098;48.054;10.636;2023-05-10T04:16:18;11.50;99.90
37204;DHT22;23098;48.054;10.636;2023-05-10T04:18:45;11.50;99.90
37204;DHT22;23098;48.054;10.636;2023-05-10T04:21:11;11.50;99.90
37204;DHT22;23098;48.054;10.636;2023-05-10T04:23:37;11.50;99.90
37204;DHT22;23098;48.054;10.636;2023-05-10T04:26:03;11.60;99.90
37204;DHT22;23098;48.054;10.636;2023-05-10T04:28:29;11.60;99.90
37204;DHT22;23098;48.054;10.636;2023-05-10T04:31:01;11.60;99.90
37204;DHT22;23098;48.054;10.636;2023-05-10T04:33:27;11.60;99.90
37204;DHT22;23098;48.054;10.636;2023-05-10T04:35:53;11.70;99.90
37204;DHT22;23098;48.054;10.636;2023-05-10T04:38:18;11.60;99.90
37204;DHT22;23098;48.054;10.636;2023-05-10T04:40:44;11.70;99.90
37204;DHT22;23098;48.054;10.636;2023-05-10T04:43:09;11.80;99.90
37204;DHT22;23098;48.054;10.636;2023-05-10T04:45:35;11.70;99.90
37204;DHT22;23098;48.054;10.636;2023-05-10T04:48:00;11.70;99.90
37204;DHT22;23098;48.054;10.636;2023-05-10T04:50:26;11.80;99.90
37204;DHT22;23098;48.054;10.636;2023-05-10T04:52:51;11.70;99.90
37204;DHT22;23098;48.054;10.636;2023-05-10T04:55:17;11.70;99.90
37204;DHT22;23098;48.054;10.636;2023-05-10T04:57:42;11.80;99.90
37204;DHT22;23098;48.054;10.636;2023-05-10T05:00:08;11.70;99.90
37204;DHT22;23098;48.054;10.636;2023-05-10T05:02:34;11.70;99.90
37204;DHT22;23098;48.054;10.636;2023-05-10T05:04:59;11.70;99.90
37204;DHT22;23098;48.054;10.636;2023-05-10T05:07:25;11.80;99.90
37204;DHT22;23098;48.054;10.636;2023-05-10T05:09:51;11.80;99.90
37204;DHT22;23098;48.054;10.636;2023-05-10T05:12:16;11.80;99.90
37204;DHT22;23098;48.054;10.636;2023-05-10T05:14:42;11.80;99.90
37204;DHT22;23098;48.054;10.636;2023-05-10T05:17:07;11.80;99.90
37204;DHT22;23098;48.054;10.636;2023-05-10T05:19:33;11.80;99.90
37204;DHT22;23098;48.054;10.636;2023-05-10T05:21:58;11.80;99.90
37204;DHT22;23098;48.054;10.636;2023-05-10T05:24:24;11.90;99.90
37204;DHT22;23098;48.054;10.636;2023-05-10T05:26:50;11.90;99.90
37204;DHT22;23098;48.054;10.636;2023-05-10T05:29:16;11.90;99.90
37204;DHT22;23098;48.054;10.636;2023-05-10T05:31:41;12.00;99.90
37204;DHT22;23098;48.054;10.636;2023-05-10T05:34:07;12.00;99.90
37204;DHT22;23098;48.054;10.636;2023-05-10T05:36:35;12.00;99.90
37204;DHT22;23098;48.054;10.636;2023-05-10T05:39:01;12.00;99.90
37204;DHT22;23098;48.054;10.636;2023-05-10T05:41:26;12.00;99.90
37204;DHT22;23098;48.054;10.636;2023-05-10T05:43:52;12.00;99.90
37204;DHT22;23098;48.054;10.636;2023-05-10T05:46:18;12.10;99.90
37204;DHT22;23098;48.054;10.636;2023-05-10T05:48:43;12.10;99.90
37204;DHT22;23098;48.054;10.636;2023-05-10T05:51:09;12.10;99.90
37204;DHT22;23098;48.054;10.636;2023-05-10T05:53:34;12.20;99.90
37204;DHT22;23098;48.054;10.636;2023-05-10T05:55:59;12.10;99.90
37204;DHT22;23098;48.054;10.636;2023-05-10T05:58:25;12.20;99.90
37204;DHT22;23098;48.054;10.636;2023-05-10T06:00:51;12.20;99.90
37204;DHT22;23098;48.054;10.636;2023-05-10T06:03:18;12.20;99.90
37204;DHT22;23098;48.054;10.636;2023-05-10T06:05:43;12.30;99.90
37204;DHT22;23098;48.054;10.636;2023-05-10T06:08:09;12.30;99.90
37204;DHT22;23098;48.054;10.636;2023-05-10T06:10:35;12.50;99.90
37204;DHT22;23098;48.054;10.636;2023-05-10T06:13:01;12.60;99.90
37204;DHT22;23098;48.054;10.636;2023-05-10T06:15:27;12.60;99.90
37204;DHT22;23098;48.054;10.636;2023-05-10T06:17:52;12.70;99.90
37204;DHT22;23098;48.054;10.636;2023-05-10T06:20:18;12.70;99.90
37204;DHT22;23098;48.054;10.636;2023-05-10T06:22:43;12.70;99.90
37204;DHT22;23098;48.054;10.636;2023-05-10T06:25:09;12.80;99.90
37204;DHT22;23098;48.054;10.636;2023-05-10T06:27:35;12.80;99.90
37204;DHT22;23098;48.054;10.636;2023-05-10T06:30:00;12.80;99.90
37204;DHT22;23098;48.054;10.636;2023-05-10T06:32:26;12.90;99.90
37204;DHT22;23098;48.054;10.636;2023-05-10T06:34:51;12.90;99.90
37204;DHT22;23098;48.054;10.636;2023-05-10T06:37:17;12.90;99.90
37204;DHT22;23098;48.054;10.636;2023-05-10T06:39:43;13.00;99.90
37204;DHT22;23098;48.054;10.636;2023-05-10T06:42:08;13.10;99.90
37204;DHT22;23098;48.054;10.636;2023-05-10T06:44:34;13.10;99.90
37204;DHT22;23098;48.054;10.636;2023-05-10T06:46:59;13.10;99.90
37204;DHT22;23098;48.054;10.636;2023-05-10T06:49:25;13.10;99.90
37204;DHT22;23098;48.054;10.636;2023-05-10T06:51:51;13.10;99.90
37204;DHT22;23098;48.054;10.636;2023-05-10T06:54:17;13.10;99.90
37204;DHT22;23098;48.054;10.636;2023-05-10T06:56:43;13.20;99.90
37204;DHT22;23098;48.054;10.636;2023-05-10T06:59:08;13.30;99.90
37204;DHT22;23098;48.054;10.636;2023-05-10T07:01:34;13.20;99.90
37204;DHT22;23098;48.054;10.636;2023-05-10T07:04:00;13.30;99.90
37204;DHT22;23098;48.054;10.636;2023-05-10T07:06:25;13.40;99.90
37204;DHT22;23098;48.054;10.636;2023-05-10T07:08:51;13.40;99.90
37204;DHT22;23098;48.054;10.636;2023-05-10T07:11:16;13.60;99.90
37204;DHT22;23098;48.054;10.636;2023-05-10T07:13:42;13.70;99.90
37204;DHT22;23098;48.054;10.636;2023-05-10T07:16:09;13.80;99.90
37204;DHT22;23098;48.054;10.636;2023-05-10T07:18:35;13.70;99.90
37204;DHT22;23098;48.054;10.636;2023-05-10T07:21:01;13.70;99.90
37204;DHT22;23098;48.054;10.636;2023-05-10T07:23:27;13.80;99.90
37204;DHT22;23098;48.054;10.636;2023-05-10T07:25:53;13.70;99.90
37204;DHT22;23098;48.054;10.636;2023-05-10T07:28:19;13.70;99.90
37204;DHT22;23098;48.054;10.636;2023-05-10T07:30:45;13.70;99.90
37204;DHT22;23098;48.054;10.636;2023-05-10T07:33:12;13.70;99.90
37204;DHT22;23098;48.054;10.636;2023-05-10T07:35:38;13.70;99.90
37204;DHT22;23098;48.054;10.636;2023-05-10T07:38:04;13.70;99.90
37204;DHT22;23098;48.054;10.636;2023-05-10T07:40:30;13.80;99.90
37204;DHT22;23098;48.054;10.636;2023-05-10T07:42:55;13.80;99.90
37204;DHT22;23098;48.054;10.636;2023-05-10T07:45:21;13.90;99.90
37204;DHT22;23098;48.054;10.636;2023-05-10T07:47:47;14.10;99.90
37204;DHT22;23098;48.054;10.636;2023-05-10T07:50:13;14.20;99.90
37204;DHT22;23098;48.054;10.636;2023-05-10T07:52:38;14.30;99.90
37204;DHT22;23098;48.054;10.636;2023-05-10T07:55:04;14.30;99.90
37204;DHT22;23098;48.054;10.636;2023-05-10T07:57:30;14.30;99.90
37204;DHT22;23098;48.054;10.636;2023-05-10T07:59:56;14.40;99.90
37204;DHT22;23098;48.054;10.636;2023-05-10T08:02:21;14.60;99.90
37204;DHT22;23098;48.054;10.636;2023-05-10T08:04:47;14.40;99.90
37204;DHT22;23098;48.054;10.636;2023-05-10T08:07:12;14.20;99.90
37204;DHT22;23098;48.054;10.636;2023-05-10T08:09:38;14.20;99.90
37204;DHT22;23098;48.054;10.636;2023-05-10T08:12:03;14.30;99.90
37204;DHT22;23098;48.054;10.636;2023-05-10T08:14:29;14.50;99.90
37204;DHT22;23098;48.054;10.636;2023-05-10T08:16:55;14.40;99.90
37204;DHT22;23098;48.054;10.636;2023-05-10T08:19:21;14.50;99.90
37204;DHT22;23098;48.054;10.636;2023-05-10T08:21:48;14.70;99.90
37204;DHT22;23098;48.054;10.636;2023-05-10T08:24:13;15.00;99.90
37204;DHT22;23098;48.054;10.636;2023-05-10T08:26:39;15.10;99.90
37204;DHT22;23098;48.054;10.636;2023-05-10T08:29:06;15.10;99.90
37204;DHT22;23098;48.054;10.636;2023-05-10T08:31:32;15.30;99.90
37204;DHT22;23098;48.054;10.636;2023-05-10T08:33:57;15.50;99.90
37204;DHT22;23098;48.054;10.636;2023-05-10T08:36:23;15.40;99.90
37204;DHT22;23098;48.054;10.636;2023-05-10T08:38:53;15.40;99.90
37204;DHT22;23098;48.054;10.636;2023-05-10T08:41:22;15.20;99.90
37204;DHT22;23098;48.054;10.636;2023-05-10T08:43:50;15.20;99.90
37204;DHT22;23098;48.054;10.636;2023-05-10T08:46:19;15.10;99.90
37204;DHT22;23098;48.054;10.636;2023-05-10T08:48:46;14.80;99.90
37204;DHT22;23098;48.054;10.636;2023-05-10T08:51:18;14.70;99.90
37204;DHT22;23098;48.054;10.636;2023-05-10T08:53:45;14.40;99.90
37204;DHT22;23098;48.054;10.636;2023-05-10T08:56:11;13.90;99.90
37204;DHT22;23098;48.054;10.636;2023-05-10T08:58:37;13.50;99.90
37204;DHT22;23098;48.054;10.636;2023-05-10T09:01:04;13.10;99.90
37204;DHT22;23098;48.054;10.636;2023-05-10T09:03:30;12.80;99.90
37204;DHT22;23098;48.054;10.636;2023-05-10T09:05:56;12.50;99.90
37204;DHT22;23098;48.054;10.636;2023-05-10T09:08:23;12.70;99.90
37204;DHT22;23098;48.054;10.636;2023-05-10T09:10:53;13.00;99.90
37204;DHT22;23098;48.054;10.636;2023-05-10T09:13:19;13.30;99.90
37204;DHT22;23098;48.054;10.636;2023-05-10T09:15:46;13.50;99.90
37204;DHT22;23098;48.054;10.636;2023-05-10T09:18:12;13.70;99.90
37204;DHT22;23098;48.054;10.636;2023-05-10T09:20:38;13.50;99.90
37204;DHT22;23098;48.054;10.636;2023-05-10T09:23:04;13.40;99.90
37204;DHT22;23098;48.054;10.636;2023-05-10T09:25:30;13.40;99.90
37204;DHT22;23098;48.054;10.636;2023-05-10T09:27:58;13.60;99.90
37204;DHT22;23098;48.054;10.636;2023-05-10T09:30:28;14.00;99.90
37204;DHT22;23098;48.054;10.636;2023-05-10T09:32:55;14.30;99.90
37204;DHT22;23098;48.054;10.636;2023-05-10T09:35:25;14.30;99.90
37204;DHT22;23098;48.054;10.636;2023-05-10T09:37:54;14.20;99.90
37204;DHT22;23098;48.054;10.636;2023-05-10T09:40:23;14.30;99.90
37204;DHT22;23098;48.054;10.636;2023-05-10T09:45:27;14.40;99.90
37204;DHT22;23098;48.054;10.636;2023-05-10T09:47:53;14.40;99.90
37204;DHT22;23098;48.054;10.636;2023-05-10T09:50:19;14.30;99.90
37204;DHT22;23098;48.054;10.636;2023-05-10T09:53:02;14.20;99.90
37204;DHT22;23098;48.054;10.636;2023-05-10T09:55:39;14.00;99.90
37204;DHT22;23098;48.054;10.636;2023-05-10T09:58:06;14.10;99.90
37204;DHT22;23098;48.054;10.636;2023-05-10T10:00:45;14.00;99.90
37204;DHT22;23098;48.054;10.636;2023-05-10T10:03:20;14.10;99.90
37204;DHT22;23098;48.054;10.636;2023-05-10T10:05:47;14.30;99.90
37204;DHT22;23098;48.054;10.636;2023-05-10T10:08:14;14.40;99.90
37204;DHT22;23098;48.054;10.636;2023-05-10T10:10:40;14.20;99.90
37204;DHT22;23098;48.054;10.636;2023-05-10T10:13:07;14.20;99.90
37204;DHT22;23098;48.054;10.636;2023-05-10T10:15:34;14.20;99.90
37204;DHT22;23098;48.054;10.636;2023-05-10T10:17:59;14.30;99.90
37204;DHT22;23098;48.054;10.636;2023-05-10T10:20:26;14.40;99.90
37204;DHT22;23098;48.054;10.636;2023-05-10T10:22:52;14.40;99.90
37204;DHT22;23098;48.054;10.636;2023-05-10T10:25:18;14.40;99.90
37204;DHT22;23098;48.054;10.636;2023-05-10T10:33:30;14.30;99.90
37204;DHT22;23098;48.054;10.636;2023-05-10T10:36:00;14.30;99.90
37204;DHT22;23098;48.054;10.636;2023-05-10T10:38:36;14.20;99.90
37204;DHT22;23098;48.054;10.636;2023-05-10T10:41:09;14.30;99.90
37204;DHT22;23098;48.054;10.636;2023-05-10T10:43:35;14.30;99.90
37204;DHT22;23098;48.054;10.636;2023-05-10T10:46:15;14.40;99.90
37204;DHT22;23098;48.054;10.636;2023-05-10T10:48:47;14.40;99.90
37204;DHT22;23098;48.054;10.636;2023-05-10T10:51:13;14.60;99.90
37204;DHT22;23098;48.054;10.636;2023-05-10T10:53:40;14.50;99.90
37204;DHT22;23098;48.054;10.636;2023-05-10T10:56:11;14.00;99.90
37204;DHT22;23098;48.054;10.636;2023-05-10T10:58:38;13.70;99.90
37204;DHT22;23098;48.054;10.636;2023-05-10T11:01:15;13.50;99.90
37204;DHT22;23098;48.054;10.636;2023-05-10T11:06:30;13.30;99.90
37204;DHT22;23098;48.054;10.636;2023-05-10T11:08:57;13.20;99.90
37204;DHT22;23098;48.054;10.636;2023-05-10T11:11:22;13.30;99.90
37204;DHT22;23098;48.054;10.636;2023-05-10T11:13:48;13.40;99.90
37204;DHT22;23098;48.054;10.636;2023-05-10T11:16:24;13.60;99.90
37204;DHT22;23098;48.054;10.636;2023-05-10T11:19:04;13.60;99.90
37204;DHT22;23098;48.054;10.636;2023-05-10T11:21:31;13.70;99.90
37204;DHT22;23098;48.054;10.636;2023-05-10T11:23:58;13.70;99.90
37204;DHT22;23098;48.054;10.636;2023-05-10T11:26:29;13.60;99.90
37204;DHT22;23098;48.054;10.636;2023-05-10T11:28:55;13.20;99.90
37204;DHT22;23098;48.054;10.636;2023-05-10T11:31:21;12.90;99.90
37204;DHT22;23098;48.054;10.636;2023-05-10T11:33:49;12.40;99.90
37204;DHT22;23098;48.054;10.636;2023-05-10T11:36:20;11.90;99.90
37204;DHT22;23098;48.054;10.636;2023-05-10T11:38:46;11.80;99.90
37204;DHT22;23098;48.054;10.636;2023-05-10T11:41:12;11.80;99.90
37204;DHT22;23098;48.054;10.636;2023-05-10T11:43:42;11.90;99.90
37204;DHT22;23098;48.054;10.636;2023-05-10T11:46:10;12.00;99.90
37204;DHT22;23098;48.054;10.636;2023-05-10T11:48:39;12.20;99.90
37204;DHT22;23098;48.054;10.636;2023-05-10T11:51:06;12.30;99.90
37204;DHT22;23098;48.054;10.636;2023-05-10T11:53:33;12.50;99.90
37204;DHT22;23098;48.054;10.636;2023-05-10T11:56:08;12.60;99.90
37204;DHT22;23098;48.054;10.636;2023-05-10T11:58:36;12.70;99.90
37204;DHT22;23098;48.054;10.636;2023-05-10T12:01:02;12.60;99.90
37204;DHT22;23098;48.054;10.636;2023-05-10T12:03:29;12.60;99.90
37204;DHT22;23098;48.054;10.636;2023-05-10T12:05:58;12.40;99.90
37204;DHT22;23098;48.054;10.636;2023-05-10T12:08:28;11.90;99.90
37204;DHT22;23098;48.054;10.636;2023-05-10T12:11:07;11.60;99.90
37204;DHT22;23098;48.054;10.636;2023-05-10T12:13:36;11.40;99.90
37204;DHT22;23098;48.054;10.636;2023-05-10T12:16:15;11.20;99.90
37204;DHT22;23098;48.054;10.636;2023-05-10T12:18:41;11.00;99.90
37204;DHT22;23098;48.054;10.636;2023-05-10T12:21:11;10.80;99.90
37204;DHT22;23098;48.054;10.636;2023-05-10T12:23:37;10.70;99.90
37204;DHT22;23098;48.054;10.636;2023-05-10T12:26:04;10.60;99.90
37204;DHT22;23098;48.054;10.636;2023-05-10T12:28:31;10.50;99.90
37204;DHT22;23098;48.054;10.636;2023-05-10T12:30:58;10.50;99.90
37204;DHT22;23098;48.054;10.636;2023-05-10T12:33:24;10.50;99.90
37204;DHT22;23098;48.054;10.636;2023-05-10T12:35:51;10.50;99.90
37204;DHT22;23098;48.054;10.636;2023-05-10T12:38:29;10.50;99.90
37204;DHT22;23098;48.054;10.636;2023-05-10T12:40:57;10.50;99.90
37204;DHT22;23098;48.054;10.636;2023-05-10T12:43:23;10.50;99.90
37204;DHT22;23098;48.054;10.636;2023-05-10T12:45:48;10.50;99.90
37204;DHT22;23098;48.054;10.636;2023-05-10T12:48:17;10.50;99.90
37204;DHT22;23098;48.054;10.636;2023-05-10T12:50:43;10.60;99.90
37204;DHT22;23098;48.054;10.636;2023-05-10T12:53:08;10.60;99.90
37204;DHT22;23098;48.054;10.636;2023-05-10T12:55:34;10.70;99.90
37204;DHT22;23098;48.054;10.636;2023-05-10T12:57:59;10.70;99.90
37204;DHT22;23098;48.054;10.636;2023-05-10T13:00:25;10.70;99.90
37204;DHT22;23098;48.054;10.636;2023-05-10T13:02:51;10.80;99.90
37204;DHT22;23098;48.054;10.636;2023-05-10T13:05:17;10.80;99.90
37204;DHT22;23098;48.054;10.636;2023-05-10T13:07:42;10.90;99.90
37204;DHT22;23098;48.054;10.636;2023-05-10T13:10:09;10.90;99.90
37204;DHT22;23098;48.054;10.636;2023-05-10T13:12:35;10.90;99.90
37204;DHT22;23098;48.054;10.636;2023-05-10T13:15:01;11.00;99.90
37204;DHT22;23098;48.054;10.636;2023-05-10T13:17:27;11.00;99.90
37204;DHT22;23098;48.054;10.636;2023-05-10T13:19:53;11.00;99.90
37204;DHT22;23098;48.054;10.636;2023-05-10T13:22:18;11.00;99.90
37204;DHT22;23098;48.054;10.636;2023-05-10T13:24:44;11.10;99.90
37204;DHT22;23098;48.054;10.636;2023-05-10T13:27:09;11.10;99.90
37204;DHT22;23098;48.054;10.636;2023-05-10T13:29:35;11.20;99.90
37204;DHT22;23098;48.054;10.636;2023-05-10T13:32:00;11.30;99.90
37204;DHT22;23098;48.054;10.636;2023-05-10T13:34:26;11.30;99.90
37204;DHT22;23098;48.054;10.636;2023-05-10T13:36:53;11.30;99.90
37204;DHT22;23098;48.054;10.636;2023-05-10T13:39:20;11.50;99.90
37204;DHT22;23098;48.054;10.636;2023-05-10T13:41:45;11.60;99.90
37204;DHT22;23098;48.054;10.636;2023-05-10T13:44:12;11.60;99.90
37204;DHT22;23098;48.054;10.636;2023-05-10T13:46:39;11.70;99.90
37204;DHT22;23098;48.054;10.636;2023-05-10T13:49:04;11.70;99.90
37204;DHT22;23098;48.054;10.636;2023-05-10T13:51:30;11.80;99.90
37204;DHT22;23098;48.054;10.636;2023-05-10T13:53:57;11.80;99.90
37204;DHT22;23098;48.054;10.636;2023-05-10T13:56:23;11.70;99.90
37204;DHT22;23098;48.054;10.636;2023-05-10T13:58:48;11.70;99.90
37204;DHT22;23098;48.054;10.636;2023-05-10T14:01:14;11.70;99.90
37204;DHT22;23098;48.054;10.636;2023-05-10T14:03:39;11.80;99.90
37204;DHT22;23098;48.054;10.636;2023-05-10T14:06:05;11.80;99.90
37204;DHT22;23098;48.054;10.636;2023-05-10T14:08:32;11.70;99.90
37204;DHT22;23098;48.054;10.636;2023-05-10T14:10:58;11.70;99.90
37204;DHT22;23098;48.054;10.636;2023-05-10T14:13:24;11.70;99.90
37204;DHT22;23098;48.054;10.636;2023-05-10T14:15:50;11.70;99.90
37204;DHT22;23098;48.054;10.636;2023-05-10T14:18:16;11.70;99.90
37204;DHT22;23098;48.054;10.636;2023-05-10T14:20:41;11.70;99.90
37204;DHT22;23098;48.054;10.636;2023-05-10T14:23:07;11.60;99.90
37204;DHT22;23098;48.054;10.636;2023-05-10T14:25:32;11.60;99.90
37204;DHT22;23098;48.054;10.636;2023-05-10T14:27:58;11.60;99.90
37204;DHT22;23098;48.054;10.636;2023-05-10T14:30:24;11.60;99.90
37204;DHT22;23098;48.054;10.636;2023-05-10T14:32:49;11.60;99.90
37204;DHT22;23098;48.054;10.636;2023-05-10T14:35:15;11.60;99.90
37204;DHT22;23098;48.054;10.636;2023-05-10T14:37:41;11.60;99.90
37204;DHT22;23098;48.054;10.636;2023-05-10T14:40:06;11.50;99.90
37204;DHT22;23098;48.054;10.636;2023-05-10T14:42:32;11.50;99.90
37204;DHT22;23098;48.054;10.636;2023-05-10T14:44:58;11.60;99.90
37204;DHT22;23098;48.054;10.636;2023-05-10T14:47:23;11.60;99.90
37204;DHT22;23098;48.054;10.636;2023-05-10T14:49:49;11.60;99.90
37204;DHT22;23098;48.054;10.636;2023-05-10T14:52:14;11.80;99.90
37204;DHT22;23098;48.054;10.636;2023-05-10T14:54:40;11.70;99.90
37204;DHT22;23098;48.054;10.636;2023-05-10T14:57:06;11.70;99.90
37204;DHT22;23098;48.054;10.636;2023-05-10T14:59:32;11.60;99.90
37204;DHT22;23098;48.054;10.636;2023-05-10T15:01:58;11.50;99.90
37204;DHT22;23098;48.054;10.636;2023-05-10T15:04:24;11.60;99.90
37204;DHT22;23098;48.054;10.636;2023-05-10T15:06:49;11.60;99.90
37204;DHT22;23098;48.054;10.636;2023-05-10T15:09:15;11.70;99.90
37204;DHT22;23098;48.054;10.636;2023-05-10T15:11:41;11.70;99.90
37204;DHT22;23098;48.054;10.636;2023-05-10T15:14:07;11.60;99.90
37204;DHT22;23098;48.054;10.636;2023-05-10T15:16:32;11.60;99.90
37204;DHT22;23098;48.054;10.636;2023-05-10T15:18:58;11.60;99.90
37204;DHT22;23098;48.054;10.636;2023-05-10T15:21:23;11.60;99.90
37204;DHT22;23098;48.054;10.636;2023-05-10T15:23:49;11.60;99.90
37204;DHT22;23098;48.054;10.636;2023-05-10T15:26:15;11.60;99.90
37204;DHT22;23098;48.054;10.636;2023-05-10T15:28:41;11.50;99.90
37204;DHT22;23098;48.054;10.636;2023-05-10T15:31:06;11.50;99.90
37204;DHT22;23098;48.054;10.636;2023-05-10T15:33:32;11.40;99.90
37204;DHT22;23098;48.054;10.636;2023-05-10T15:35:57;11.40;99.90